sensor_id;sensor_type;location;lat;lon;timestamp;temperature;humidity
14349;DHT22;7258;50.376;8.742;2024-01-15T12:25:06;3.90;99.90
14349;DHT22;7258;50.376;8.742;2024-01-15T12:27:09;3.10;99.90
14349;DHT22;7258;50.376;8.742;2024-01-15T12:29:12;3.00;99.90
14349;DHT22;7258;50.376;8.742;2024-01-15T12:31:15;2.90;99.90
14349;DHT22;7258;50.376;8.742;2024-01-15T12:33:18;2.90;99.90
14349;DHT22;7258;50.376;8.742;2024-01-15T12:35:24;2.80;99.90
14349;DHT22;7258;50.376;8.742;2024-01-15T12:37:29;2.70;99.90
14349;DHT22;7258;50.376;8.742;2024-01-15T12:39:34;2.60;99.90
14349;DHT22;7258;50.376;8.742;2024-01-15T12:45:38;2.50;99.90
14349;DHT22;7258;50.376;8.742;2024-01-15T12:47:42;2.50;99.90
14349;DHT22;7258;50.376;8.742;2024-01-15T13:50:38;2.20;99.90
14349;DHT22;7258;50.376;8.742;2024-01-15T13:52:41;2.20;99.90
14349;DHT22;7258;50.376;8.742;2024-01-15T13:54:43;2.20;99.90
14349;DHT22;7258;50.376;8.742;2024-01-15T13:56:52;2.10;99.90
14349;DHT22;7258;50.376;8.742;2024-01-15T13:58:55;2.10;99.90
14349;DHT22;7258;50.376;8.742;2024-01-15T14:00:58;2.10;99.90
14349;DHT22;7258;50.376;8.742;2024-01-15T14:03:01;2.00;99.90
14349;DHT22;7258;50.376;8.742;2024-01-15T14:05:05;2.00;99.90
14349;DHT22;7258;50.376;8.742;2024-01-15T14:07:10;2.00;99.90
14349;DHT22;7258;50.376;8.742;2024-01-15T14:09:13;2.00;99.90
14349;DHT22;7258;50.376;8.742;2024-01-15T14:11:17;1.90;99.90
14349;DHT22;7258;50.376;8.742;2024-01-15T14:13:20;1.90;99.90
14349;DHT22;7258;50.376;8.742;2024-01-15T14:15:23;1.90;99.90
14349;DHT22;7258;50.376;8.742;2024-01-15T14:17:27;1.90;99.90
14349;DHT22;7258;50.376;8.742;2024-01-15T14:19:30;1.80;99.90
14349;DHT22;7258;50.376;8.742;2024-01-15T14:21:33;1.80;99.90
14349;DHT22;7258;50.376;8.742;2024-01-15T14:23:37;1.80;99.90
14349;DHT22;7258;50.376;8.742;2024-01-15T14:25:43;1.80;99.90
14349;DHT22;7258;50.376;8.742;2024-01-15T14:27:59;1.80;99.90
14349;DHT22;7258;50.376;8.742;2024-01-15T14:30:02;1.80;99.90
14349;DHT22;7258;50.376;8.742;2024-01-15T14:32:07;1.80;99.90
14349;DHT22;7258;50.376;8.742;2024-01-15T14:34:10;1.80;99.90
14349;DHT22;7258;50.376;8.742;2024-01-15T14:36:13;1.80;99.90
14349;DHT22;7258;50.376;8.742;2024-01-15T14:38:17;1.80;99.90
14349;DHT22;7258;50.376;8.742;2024-01-15T14:40:22;1.70;99.90
14349;DHT22;7258;50.376;8.742;2024-01-15T14:42:26;1.70;99.90
14349;DHT22;7258;50.376;8.742;2024-01-15T14:44:29;1.70;99.90
14349;DHT22;7258;50.376;8.742;2024-01-15T14:46:31;1.60;99.90
14349;DHT22;7258;50.376;8.742;2024-01-15T14:48:33;1.60;99.90
14349;DHT22;7258;50.376;8.742;2024-01-15T14:50:36;1.70;99.90
14349;DHT22;7258;50.376;8.742;2024-01-15T14:52:40;1.70;99.90
14349;DHT22;7258;50.376;8.742;2024-01-15T14:54:44;1.70;99.90
14349;DHT22;7258;50.376;8.742;2024-01-15T14:56:48;1.70;99.90
14349;DHT22;7258;50.376;8.742;2024-01-15T14:58:51;1.60;99.90
14349;DHT22;7258;50.376;8.742;2024-01-15T15:00:55;1.60;99.90
14349;DHT22;7258;50.376;8.742;2024-01-15T15:02:58;1.60;99.90
14349;DHT22;7258;50.376;8.742;2024-01-15T15:05:01;1.60;99.90
14349;DHT22;7258;50.376;8.742;2024-01-15T15:07:04;1.50;99.90
14349;DHT22;7258;50.376;8.742;2024-01-15T15:09:07;1.60;99.90
14349;DHT22;7258;50.376;8.742;2024-01-15T15:11:13;1.50;99.90
14349;DHT22;7258;50.376;8.742;2024-01-15T15:13:19;1.50;99.90
14349;DHT22;7258;50.376;8.742;2024-01-15T15:15:42;1.50;99.90
14349;DHT22;7258;50.376;8.742;2024-01-15T15:17:45;1.60;99.90
14349;DHT22;7258;50.376;8.742;2024-01-15T15:19:48;1.60;99.90
14349;DHT22;7258;50.376;8.742;2024-01-15T15:21:55;1.70;99.90
14349;DHT22;7258;50.376;8.742;2024-01-15T15:23:59;1.80;99.90
14349;DHT22;7258;50.376;8.742;2024-01-15T15:26:03;1.80;99.90
14349;DHT22;7258;50.376;8.742;2024-01-15T15:28:06;1.70;99.90
14349;DHT22;7258;50.376;8.742;2024-01-15T15:30:15;1.70;99.90
14349;DHT22;7258;50.376;8.742;2024-01-15T15:32:18;1.60;99.90
14349;DHT22;7258;50.376;8.742;2024-01-15T15:34:21;1.60;99.90
14349;DHT22;7258;50.376;8.742;2024-01-15T15:36:24;1.60;99.90
14349;DHT22;7258;50.376;8.742;2024-01-15T15:38:27;1.60;99.90
14349;DHT22;7258;50.376;8.742;2024-01-15T15:40:30;1.60;99.90
14349;DHT22;7258;50.376;8.742;2024-01-15T15:42:33;1.60;99.90
14349;DHT22;7258;50.376;8.742;2024-01-15T15:44:36;1.60;99.90
14349;DHT22;7258;50.376;8.742;2024-01-15T15:46:40;1.60;99.90
14349;DHT22;7258;50.376;8.742;2024-01-15T15:48:44;1.50;99.90
14349;DHT22;7258;50.376;8.742;2024-01-15T15:50:49;1.50;99.90
14349;DHT22;7258;50.376;8.742;2024-01-15T15:52:52;1.50;99.90
14349;DHT22;7258;50.376;8.742;2024-01-15T15:54:55;1.50;99.90
14349;DHT22;7258;50.376;8.742;2024-01-15T15:56:58;1.50;99.90
14349;DHT22;7258;50.376;8.742;2024-01-15T15:59:02;1.50;99.90
14349;DHT22;7258;50.376;8.742;2024-01-15T16:01:04;1.50;99.90
14349;DHT22;7258;50.376;8.742;2024-01-15T16:03:09;1.40;99.90
14349;DHT22;7258;50.376;8.742;2024-01-15T16:05:12;1.40;99.90
14349;DHT22;7258;50.376;8.742;2024-01-15T16:07:15;1.50;99.90
14349;DHT22;7258;50.376;8.742;2024-01-15T16:09:18;1.50;99.90
14349;DHT22;7258;50.376;8.742;2024-01-15T16:11:20;1.40;99.90
14349;DHT22;7258;50.376;8.742;2024-01-15T16:13:24;1.40;99.90
14349;DHT22;7258;50.376;8.742;2024-01-15T16:15:27;1.30;99.90
14349;DHT22;7258;50.376;8.742;2024-01-15T16:17:30;1.30;99.90
14349;DHT22;7258;50.376;8.742;2024-01-15T16:19:55;1.20;99.90
14349;DHT22;7258;50.376;8.742;2024-01-15T16:22:19;1.10;99.90
14349;DHT22;7258;50.376;8.742;2024-01-15T16:24:41;1.10;99.90
14349;DHT22;7258;50.376;8.742;2024-01-15T16:26:54;1.10;99.90
14349;DHT22;7258;50.376;8.742;2024-01-15T16:28:58;1.10;99.90
14349;DHT22;7258;50.376;8.742;2024-01-15T16:31:04;1.10;99.90
14349;DHT22;7258;50.376;8.742;2024-01-15T16:33:09;1.10;99.90
14349;DHT22;7258;50.376;8.742;2024-01-15T16:35:18;1.10;99.90
14349;DHT22;7258;50.376;8.742;2024-01-15T16:37:22;1.20;99.90
14349;DHT22;7258;50.376;8.742;2024-01-15T16:39:25;1.20;99.90
14349;DHT22;7258;50.376;8.742;2024-01-15T16:41:27;1.10;99.90
14349;DHT22;7258;50.376;8.742;2024-01-15T16:43:30;1.20;99.90
14349;DHT22;7258;50.376;8.742;2024-01-15T16:45:33;1.20;99.90
14349;DHT22;7258;50.376;8.742;2024-01-15T16:47:36;1.20;99.90
14349;DHT22;7258;50.376;8.742;2024-01-15T16:49:41;1.30;99.90
14349;DHT22;7258;50.376;8.742;2024-01-15T16:51:45;1.30;99.90
14349;DHT22;7258;50.376;8.742;2024-01-15T16:53:49;1.30;99.90
14349;DHT22;7258;50.376;8.742;2024-01-15T16:55:51;1.30;99.90
14349;DHT22;7258;50.376;8.742;2024-01-15T16:57:54;1.20;99.90
14349;DHT22;7258;50.376;8.742;2024-01-15T16:59:56;1.30;99.90
14349;DHT22;7258;50.376;8.742;2024-01-15T17:01:59;1.30;99.90
14349;DHT22;7258;50.376;8.742;2024-01-15T17:04:02;1.30;99.90
14349;DHT22;7258;50.376;8.742;2024-01-15T17:06:05;1.30;99.90
14349;DHT22;7258;50.376;8.742;2024-01-15T17:08:10;1.20;99.90
14349;DHT22;7258;50.376;8.742;2024-01-15T17:10:13;1.20;99.90
14349;DHT22;7258;50.376;8.742;2024-01-15T17:12:17;1.20;99.90
14349;DHT22;7258;50.376;8.742;2024-01-15T17:14:20;1.20;99.90
14349;DHT22;7258;50.376;8.742;2024-01-15T17:16:23;1.20;99.90
14349;DHT22;7258;50.376;8.742;2024-01-15T17:18:27;1.10;99.90
14349;DHT22;7258;50.376;8.742;2024-01-15T17:20:30;1.10;99.90
14349;DHT22;7258;50.376;8.742;2024-01-15T17:22:32;1.10;99.90
14349;DHT22;7258;50.376;8.742;2024-01-15T17:24:37;1.10;99.90
14349;DHT22;7258;50.376;8.742;2024-01-15T17:26:40;1.10;99.90
14349;DHT22;7258;50.376;8.742;2024-01-15T17:28:43;1.10;99.90
14349;DHT22;7258;50.376;8.742;2024-01-15T17:30:45;1.00;99.90
14349;DHT22;7258;50.376;8.742;2024-01-15T17:32:48;1.00;99.90
14349;DHT22;7258;50.376;8.742;2024-01-15T17:34:52;1.00;99.90
14349;DHT22;7258;50.376;8.742;2024-01-15T17:36:55;1.00;99.90
14349;DHT22;7258;50.376;8.742;2024-01-15T17:38:57;0.90;99.90
14349;DHT22;7258;50.376;8.742;2024-01-15T17:41:02;1.00;99.90
14349;DHT22;7258;50.376;8.742;2024-01-15T17:43:05;0.90;99.90
14349;DHT22;7258;50.376;8.742;2024-01-15T17:45:08;0.90;99.90
14349;DHT22;7258;50.376;8.742;2024-01-15T17:47:11;0.90;99.90
14349;DHT22;7258;50.376;8.742;2024-01-15T17:49:14;0.90;99.90
14349;DHT22;7258;50.376;8.742;2024-01-15T17:51:17;0.90;99.90
14349;DHT22;7258;50.376;8.742;2024-01-15T17:53:20;0.90;99.90
14349;DHT22;7258;50.376;8.742;2024-01-15T17:55:23;0.90;99.90
14349;DHT22;7258;50.376;8.742;2024-01-15T17:57:27;0.90;99.90
14349;DHT22;7258;50.376;8.742;2024-01-15T17:59:30;1.00;99.90
14349;DHT22;7258;50.376;8.742;2024-01-15T18:01:32;1.00;99.90
14349;DHT22;7258;50.376;8.742;2024-01-15T18:03:37;1.00;99.90
14349;DHT22;7258;50.376;8.742;2024-01-15T18:05:40;0.90;99.90
14349;DHT22;7258;50.376;8.742;2024-01-15T18:07:43;0.90;99.90
14349;DHT22;7258;50.376;8.742;2024-01-15T18:09:46;0.90;99.90
14349;DHT22;7258;50.376;8.742;2024-01-15T18:11:49;0.90;99.90
14349;DHT22;7258;50.376;8.742;2024-01-15T18:13:53;0.90;99.90
14349;DHT22;7258;50.376;8.742;2024-01-15T18:15:57;0.80;99.90
14349;DHT22;7258;50.376;8.742;2024-01-15T18:18:00;0.80;99.90
14349;DHT22;7258;50.376;8.742;2024-01-15T18:20:04;0.80;99.90
14349;DHT22;7258;50.376;8.742;2024-01-15T18:22:07;0.80;99.90
14349;DHT22;7258;50.376;8.742;2024-01-15T18:24:09;0.80;99.90
14349;DHT22;7258;50.376;8.742;2024-01-15T18:26:13;0.80;99.90
14349;DHT22;7258;50.376;8.742;2024-01-15T18:28:15;0.70;99.90
14349;DHT22;7258;50.376;8.742;2024-01-15T18:30:20;0.70;99.90
14349;DHT22;7258;50.376;8.742;2024-01-15T18:32:23;0.60;99.90
14349;DHT22;7258;50.376;8.742;2024-01-15T18:34:26;0.60;99.90
14349;DHT22;7258;50.376;8.742;2024-01-15T18:36:29;0.60;99.90
14349;DHT22;7258;50.376;8.742;2024-01-15T18:38:32;0.60;99.90
14349;DHT22;7258;50.376;8.742;2024-01-15T18:40:36;0.70;99.90
14349;DHT22;7258;50.376;8.742;2024-01-15T18:42:38;0.80;99.90
14349;DHT22;7258;50.376;8.742;2024-01-15T18:44:41;0.90;99.90
14349;DHT22;7258;50.376;8.742;2024-01-15T18:46:46;1.00;99.90
14349;DHT22;7258;50.376;8.742;2024-01-15T18:48:48;1.00;99.90
14349;DHT22;7258;50.376;8.742;2024-01-15T18:50:51;1.00;99.90
14349;DHT22;7258;50.376;8.742;2024-01-15T18:52:54;1.00;99.90
14349;DHT22;7258;50.376;8.742;2024-01-15T18:54:57;1.00;99.90
14349;DHT22;7258;50.376;8.742;2024-01-15T18:56:59;1.00;99.90
14349;DHT22;7258;50.376;8.742;2024-01-15T18:59:01;1.00;99.90
14349;DHT22;7258;50.376;8.742;2024-01-15T19:01:04;1.00;99.90
14349;DHT22;7258;50.376;8.742;2024-01-15T19:03:08;0.90;99.90
14349;DHT22;7258;50.376;8.742;2024-01-15T19:05:11;0.90;99.90
14349;DHT22;7258;50.376;8.742;2024-01-15T19:07:14;0.90;99.90
14349;DHT22;7258;50.376;8.742;2024-01-15T19:09:17;0.90;99.90
14349;DHT22;7258;50.376;8.742;2024-01-15T19:11:20;0.90;99.90
14349;DHT22;7258;50.376;8.742;2024-01-15T19:13:24;0.80;99.90
14349;DHT22;7258;50.376;8.742;2024-01-15T19:15:27;0.70;99.90
14349;DHT22;7258;50.376;8.742;2024-01-15T19:17:29;0.70;99.90
14349;DHT22;7258;50.376;8.742;2024-01-15T19:19:33;0.60;99.90
14349;DHT22;7258;50.376;8.742;2024-01-15T19:21:39;0.60;99.90
14349;DHT22;7258;50.376;8.742;2024-01-15T19:23:42;0.50;99.90
14349;DHT22;7258;50.376;8.742;2024-01-15T19:25:45;0.50;99.90
14349;DHT22;7258;50.376;8.742;2024-01-15T19:27:48;0.40;99.90
14349;DHT22;7258;50.376;8.742;2024-01-15T19:29:51;0.30;99.90
14349;DHT22;7258;50.376;8.742;2024-01-15T19:31:54;0.40;99.90
14349;DHT22;7258;50.376;8.742;2024-01-15T19:33:57;0.40;99.90
14349;DHT22;7258;50.376;8.742;2024-01-15T19:36:02;0.40;99.90
14349;DHT22;7258;50.376;8.742;2024-01-15T19:38:05;0.40;99.90
14349;DHT22;7258;50.376;8.742;2024-01-15T19:40:08;0.40;99.90
14349;DHT22;7258;50.376;8.742;2024-01-15T19:42:11;0.40;99.90
14349;DHT22;7258;50.376;8.742;2024-01-15T19:44:15;0.40;99.90
14349;DHT22;7258;50.376;8.742;2024-01-15T19:46:18;0.40;99.90
14349;DHT22;7258;50.376;8.742;2024-01-15T19:48:21;0.40;99.90
14349;DHT22;7258;50.376;8.742;2024-01-15T19:50:23;0.40;99.90
14349;DHT22;7258;50.376;8.742;2024-01-15T19:52:27;0.40;99.90
14349;DHT22;7258;50.376;8.742;2024-01-15T19:54:30;0.40;99.90
14349;DHT22;7258;50.376;8.742;2024-01-15T19:56:33;0.30;99.90
14349;DHT22;7258;50.376;8.742;2024-01-15T19:58:37;0.30;99.90
14349;DHT22;7258;50.376;8.742;2024-01-15T20:00:40;0.30;99.90
14349;DHT22;7258;50.376;8.742;2024-01-15T20:02:43;0.30;99.90
14349;DHT22;7258;50.376;8.742;2024-01-15T20:04:46;0.40;99.90
14349;DHT22;7258;50.376;8.742;2024-01-15T20:06:49;0.40;99.90
14349;DHT22;7258;50.376;8.742;2024-01-15T20:08:53;0.40;99.90
14349;DHT22;7258;50.376;8.742;2024-01-15T20:10:56;0.40;99.90
14349;DHT22;7258;50.376;8.742;2024-01-15T20:13:00;0.40;99.90
14349;DHT22;7258;50.376;8.742;2024-01-15T20:15:05;0.30;99.90
14349;DHT22;7258;50.376;8.742;2024-01-15T20:17:08;0.30;99.90
14349;DHT22;7258;50.376;8.742;2024-01-15T20:19:11;0.30;99.90
14349;DHT22;7258;50.376;8.742;2024-01-15T20:21:15;0.30;99.90
14349;DHT22;7258;50.376;8.742;2024-01-15T20:23:18;0.30;99.90
14349;DHT22;7258;50.376;8.742;2024-01-15T20:25:22;0.30;99.90
14349;DHT22;7258;50.376;8.742;2024-01-15T20:27:25;0.30;99.90
14349;DHT22;7258;50.376;8.742;2024-01-15T20:29:28;0.40;99.90
14349;DHT22;7258;50.376;8.742;2024-01-15T20:31:31;0.30;99.90
14349;DHT22;7258;50.376;8.742;2024-01-15T20:33:34;0.40;99.90
14349;DHT22;7258;50.376;8.742;2024-01-15T20:35:36;0.40;99.90
14349;DHT22;7258;50.376;8.742;2024-01-15T20:37:39;0.50;99.90
14349;DHT22;7258;50.376;8.742;2024-01-15T20:39:42;0.50;99.90
14349;DHT22;7258;50.376;8.742;2024-01-15T20:41:46;0.50;99.90
14349;DHT22;7258;50.376;8.742;2024-01-15T20:43:49;0.60;99.90
14349;DHT22;7258;50.376;8.742;2024-01-15T20:45:52;0.60;99.90
14349;DHT22;7258;50.376;8.742;2024-01-15T20:47:55;0.70;99.90
14349;DHT22;7258;50.376;8.742;2024-01-15T20:49:59;0.80;99.90
14349;DHT22;7258;50.376;8.742;2024-01-15T20:52:02;0.90;99.90
14349;DHT22;7258;50.376;8.742;2024-01-15T20:54:05;0.90;99.90
14349;DHT22;7258;50.376;8.742;2024-01-15T20:56:08;1.00;99.90
14349;DHT22;7258;50.376;8.742;2024-01-15T20:58:13;0.90;99.90
14349;DHT22;7258;50.376;8.742;2024-01-15T21:00:16;1.00;99.90
14349;DHT22;7258;50.376;8.742;2024-01-15T21:02:19;1.10;99.90
14349;DHT22;7258;50.376;8.742;2024-01-15T21:04:23;1.10;99.90
14349;DHT22;7258;50.376;8.742;2024-01-15T21:06:25;1.10;99.90
14349;DHT22;7258;50.376;8.742;2024-01-15T21:08:29;1.10;99.90
14349;DHT22;7258;50.376;8.742;2024-01-15T21:10:32;1.10;99.90
14349;DHT22;7258;50.376;8.742;2024-01-15T21:12:35;1.10;99.90
14349;DHT22;7258;50.376;8.742;2024-01-15T21:14:40;1.10;99.90
14349;DHT22;7258;50.376;8.742;2024-01-15T21:16:43;1.10;99.90
14349;DHT22;7258;50.376;8.742;2024-01-15T21:18:46;1.20;99.90
14349;DHT22;7258;50.376;8.742;2024-01-15T21:20:51;1.20;99.90
14349;DHT22;7258;50.376;8.742;2024-01-15T21:22:56;1.20;99.90
14349;DHT22;7258;50.376;8.742;2024-01-15T21:24:59;1.20;99.90
14349;DHT22;7258;50.376;8.742;2024-01-15T21:27:02;1.20;99.90
14349;DHT22;7258;50.376;8.742;2024-01-15T21:29:05;1.20;99.90
14349;DHT22;7258;50.376;8.742;2024-01-15T21:31:10;1.10;99.90
14349;DHT22;7258;50.376;8.742;2024-01-15T21:33:12;1.10;99.90
14349;DHT22;7258;50.376;8.742;2024-01-15T21:35:16;1.00;99.90
14349;DHT22;7258;50.376;8.742;2024-01-15T21:37:19;0.90;99.90
14349;DHT22;7258;50.376;8.742;2024-01-15T21:39:22;0.90;99.90
14349;DHT22;7258;50.376;8.742;2024-01-15T21:41:24;0.90;99.90
14349;DHT22;7258;50.376;8.742;2024-01-15T21:43:27;0.90;99.90
14349;DHT22;7258;50.376;8.742;2024-01-15T21:45:30;0.80;99.90
14349;DHT22;7258;50.376;8.742;2024-01-15T21:47:35;0.90;99.90
14349;DHT22;7258;50.376;8.742;2024-01-15T21:49:38;0.90;99.90
14349;DHT22;7258;50.376;8.742;2024-01-15T21:51:41;0.90;99.90
14349;DHT22;7258;50.376;8.742;2024-01-15T21:53:44;0.90;99.90
14349;DHT22;7258;50.376;8.742;2024-01-15T21:55:47;1.00;99.90
14349;DHT22;7258;50.376;8.742;2024-01-15T21:57:49;0.90;99.90
14349;DHT22;7258;50.376;8.742;2024-01-15T21:59:52;1.00;99.90
14349;DHT22;7258;50.376;8.742;2024-01-15T22:01:55;1.00;99.90
14349;DHT22;7258;50.376;8.742;2024-01-15T22:03:59;1.00;99.90
14349;DHT22;7258;50.376;8.742;2024-01-15T22:06:03;1.00;99.90
14349;DHT22;7258;50.376;8.742;2024-01-15T22:08:06;1.00;99.90
14349;DHT22;7258;50.376;8.742;2024-01-15T22:10:10;1.00;99.90
14349;DHT22;7258;50.376;8.742;2024-01-15T22:12:13;1.00;99.90
14349;DHT22;7258;50.376;8.742;2024-01-15T22:14:17;0.90;99.90
14349;DHT22;7258;50.376;8.742;2024-01-15T22:16:19;0.90;99.90
14349;DHT22;7258;50.376;8.742;2024-01-15T22:18:22;0.90;99.90
14349;DHT22;7258;50.376;8.742;2024-01-15T22:20:27;0.90;99.90
14349;DHT22;7258;50.376;8.742;2024-01-15T22:22:30;0.80;99.90
14349;DHT22;7258;50.376;8.742;2024-01-15T22:24:36;0.80;99.90
14349;DHT22;7258;50.376;8.742;2024-01-15T22:26:40;0.90;99.90
14349;DHT22;7258;50.376;8.742;2024-01-15T22:28:43;0.90;99.90
14349;DHT22;7258;50.376;8.742;2024-01-15T22:30:46;0.90;99.90
14349;DHT22;7258;50.376;8.742;2024-01-15T22:32:49;0.90;99.90
14349;DHT22;7258;50.376;8.742;2024-01-15T22:34:52;0.90;99.90
14349;DHT22;7258;50.376;8.742;2024-01-15T22:36:56;0.90;99.90
14349;DHT22;7258;50.376;8.742;2024-01-15T22:38:59;0.90;99.90
14349;DHT22;7258;50.376;8.742;2024-01-15T22:41:03;0.90;99.90
14349;DHT22;7258;50.376;8.742;2024-01-15T22:43:06;0.90;99.90
14349;DHT22;7258;50.376;8.742;2024-01-15T22:45:09;0.90;99.90
14349;DHT22;7258;50.376;8.742;2024-01-15T22:47:17;0.80;99.90
14349;DHT22;7258;50.376;8.742;2024-01-15T22:49:20;0.80;99.90
14349;DHT22;7258;50.376;8.742;2024-01-15T22:51:23;0.80;99.90
14349;DHT22;7258;50.376;8.742;2024-01-15T22:53:28;0.80;99.90
14349;DHT22;7258;50.376;8.742;2024-01-15T22:55:30;0.80;99.90
14349;DHT22;7258;50.376;8.742;2024-01-15T22:57:34;0.70;99.90
14349;DHT22;7258;50.376;8.742;2024-01-15T22:59:37;0.70;99.90
14349;DHT22;7258;50.376;8.742;2024-01-15T23:01:40;0.70;99.90
14349;DHT22;7258;50.376;8.742;2024-01-15T23:03:43;0.70;99.90
14349;DHT22;7258;50.376;8.742;2024-01-15T23:05:46;0.60;99.90
14349;DHT22;7258;50.376;8.742;2024-01-15T23:07:48;0.60;99.90
14349;DHT22;7258;50.376;8.742;2024-01-15T23:09:54;0.60;99.90
14349;DHT22;7258;50.376;8.742;2024-01-15T23:11:56;0.60;99.90
14349;DHT22;7258;50.376;8.742;2024-01-15T23:13:59;0.70;99.90
14349;DHT22;7258;50.376;8.742;2024-01-15T23:16:02;0.70;99.90
14349;DHT22;7258;50.376;8.742;2024-01-15T23:18:05;0.70;99.90
14349;DHT22;7258;50.376;8.742;2024-01-15T23:20:09;0.70;99.90
14349;DHT22;7258;50.376;8.742;2024-01-15T23:22:12;0.70;99.90
14349;DHT22;7258;50.376;8.742;2024-01-15T23:24:15;0.80;99.90
14349;DHT22;7258;50.376;8.742;2024-01-15T23:26:20;0.80;99.90
14349;DHT22;7258;50.376;8.742;2024-01-15T23:28:23;0.80;99.90
14349;DHT22;7258;50.376;8.742;2024-01-15T23:30:26;0.80;99.90
14349;DHT22;7258;50.376;8.742;2024-01-15T23:32:29;0.80;99.90
14349;DHT22;7258;50.376;8.742;2024-01-15T23:34:34;0.80;99.90
14349;DHT22;7258;50.376;8.742;2024-01-15T23:36:37;0.80;99.90
14349;DHT22;7258;50.376;8.742;2024-01-15T23:38:40;0.80;99.90
14349;DHT22;7258;50.376;8.742;2024-01-15T23:40:43;0.80;99.90
14349;DHT22;7258;50.376;8.742;2024-01-15T23:42:47;0.80;99.90
14349;DHT22;7258;50.376;8.742;2024-01-15T23:44:50;0.80;99.90
14349;DHT22;7258;50.376;8.742;2024-01-15T23:46:51;0.80;99.90
14349;DHT22;7258;50.376;8.742;2024-01-15T23:48:54;0.80;99.90
14349;DHT22;7258;50.376;8.742;2024-01-15T23:50:57;0.80;99.90
14349;DHT22;7258;50.376;8.742;2024-01-15T23:53:04;0.80;99.90
14349;DHT22;7258;50.376;8.742;2024-01-15T23:55:07;0.80;99.90
14349;DHT22;7258;50.376;8.742;2024-01-15T23:57:10;0.80;99.90
14349;DHT22;7258;50.376;8.742;2024-01-15T23:59:15;0.80;99.90
